Time;durP1;ratioP1;P1;durP2;ratioP2;P2;SDS_P1;SDS_P2;PMS_P1;PMS_P2;Temp;Humidity;BMP_temperature;BMP_pressure;BME280_temperature;BME280_humidity;BME280_pressure;Samples;Min_cycle;Max_cycle;Signal;HPM_P1;HPM_P2
2021/09/05 00:00:46;;;;;;;;;;;15.00;99.90;;;;;;5087557;28;19908;-70
2021/09/05 00:03:11;;;;;;;;;;;14.90;99.90;;;;;;5085316;28;20006;-70
2021/09/05 00:05:37;;;;;;;;;;;14.90;99.90;;;;;;5087710;28;20383;-70
2021/09/05 00:08:02;;;;;;;;;;;14.80;99.90;;;;;;5086664;28;19912;-70
2021/09/05 00:10:28;;;;;;;;;;;14.80;99.90;;;;;;5086148;28;19908;-71
2021/09/05 00:12:53;;;;;;;;;;;14.80;99.90;;;;;;5085636;28;19924;-70
2021/09/05 00:15:19;;;;;;;;;;;14.80;99.90;;;;;;5086517;28;19920;-70
2021/09/05 00:17:44;;;;;;;;;;;14.70;99.90;;;;;;5086276;28;19908;-70
2021/09/05 00:20:10;;;;;;;;;;;14.70;99.90;;;;;;5086429;28;20307;-70
2021/09/05 00:22:36;;;;;;;;;;;14.70;99.90;;;;;;5085253;28;19916;-70
2021/09/05 00:25:01;;;;;;;;;;;14.70;99.90;;;;;;5085784;28;20288;-70
2021/09/05 00:27:27;;;;;;;;;;;14.70;99.90;;;;;;5086472;28;19973;-70
2021/09/05 00:29:52;;;;;;;;;;;14.70;99.90;;;;;;5086862;28;19999;-69
2021/09/05 00:32:18;;;;;;;;;;;14.60;99.90;;;;;;5085928;28;19908;-69
2021/09/05 00:34:43;;;;;;;;;;;14.50;1.00;;;;;;5085527;28;19948;-70
2021/09/05 00:37:09;;;;;;;;;;;14.60;99.90;;;;;;5091111;28;20300;-70
2021/09/05 00:39:34;;;;;;;;;;;14.60;99.90;;;;;;5087526;28;19919;-69
2021/09/05 00:42:00;;;;;;;;;;;14.50;1.00;;;;;;5088902;28;19935;-69
2021/09/05 00:44:25;;;;;;;;;;;14.50;1.00;;;;;;5089408;28;19908;-70
2021/09/05 00:46:51;;;;;;;;;;;14.50;1.00;;;;;;5089700;28;19908;-70
2021/09/05 00:49:16;;;;;;;;;;;14.40;1.00;;;;;;5089042;28;19914;-69
2021/09/05 00:51:43;;;;;;;;;;;14.40;1.00;;;;;;5089710;28;19916;-70
2021/09/05 00:54:09;;;;;;;;;;;14.40;1.00;;;;;;5088192;28;19912;-69
2021/09/05 00:56:36;;;;;;;;;;;14.30;1.00;;;;;;5086736;28;19938;-69
2021/09/05 00:59:05;;;;;;;;;;;14.30;1.00;;;;;;5089091;28;19908;-69
2021/09/05 01:01:30;;;;;;;;;;;14.20;1.00;;;;;;5089327;28;20349;-70
2021/09/05 01:03:56;;;;;;;;;;;14.30;1.00;;;;;;5088266;28;20022;-69
2021/09/05 01:06:21;;;;;;;;;;;14.20;1.00;;;;;;5089518;28;19931;-70
2021/09/05 01:08:48;;;;;;;;;;;14.20;1.00;;;;;;5088358;28;19973;-70
2021/09/05 01:11:14;;;;;;;;;;;14.20;1.00;;;;;;5088947;28;19965;-69
2021/09/05 01:13:40;;;;;;;;;;;14.10;1.00;;;;;;5095800;23;19928;-68
2021/09/05 01:16:05;;;;;;;;;;;14.10;1.00;;;;;;5071048;28;19915;-68
2021/09/05 01:18:31;;;;;;;;;;;14.10;1.00;;;;;;5072579;28;19913;-69
2021/09/05 01:20:56;;;;;;;;;;;14.10;1.00;;;;;;5073029;28;20003;-69
2021/09/05 01:23:22;;;;;;;;;;;14.10;1.00;;;;;;5071160;28;19932;-68
2021/09/05 01:25:48;;;;;;;;;;;14.10;1.00;;;;;;5072014;28;19923;-68
2021/09/05 01:28:13;;;;;;;;;;;14.10;1.00;;;;;;5051404;28;19909;-69
2021/09/05 01:30:39;;;;;;;;;;;14.10;1.00;;;;;;5073080;28;19908;-68
2021/09/05 01:33:04;;;;;;;;;;;14.10;1.00;;;;;;5071691;28;19951;-68
2021/09/05 01:35:32;;;;;;;;;;;14.00;1.00;;;;;;5072697;28;19961;-68
2021/09/05 01:37:57;;;;;;;;;;;14.00;1.00;;;;;;5076325;28;19912;-69
2021/09/05 01:40:23;;;;;;;;;;;14.00;1.00;;;;;;5071827;28;20365;-69
2021/09/05 01:42:48;;;;;;;;;;;13.90;1.00;;;;;;5071371;28;19958;-68
2021/09/05 01:45:14;;;;;;;;;;;14.00;1.00;;;;;;5072474;28;20291;-69
2021/09/05 01:47:39;;;;;;;;;;;13.90;1.00;;;;;;5072469;28;19916;-69
2021/09/05 01:50:05;;;;;;;;;;;13.90;1.00;;;;;;5065657;28;20307;-68
2021/09/05 01:52:33;;;;;;;;;;;13.90;1.00;;;;;;5051307;28;20354;-68
2021/09/05 01:54:59;;;;;;;;;;;13.90;1.00;;;;;;5051242;28;19939;-69
2021/09/05 01:57:24;;;;;;;;;;;13.80;1.00;;;;;;5052608;28;19908;-68
2021/09/05 01:59:50;;;;;;;;;;;13.80;1.00;;;;;;5051882;28;19909;-68
2021/09/05 02:02:15;;;;;;;;;;;13.80;1.00;;;;;;5051536;28;20393;-69
2021/09/05 02:04:40;;;;;;;;;;;13.70;1.00;;;;;;5051413;28;19917;-68
2021/09/05 02:07:06;;;;;;;;;;;13.70;1.00;;;;;;5052232;28;19909;-68
2021/09/05 02:09:31;;;;;;;;;;;13.70;1.00;;;;;;5050763;28;20097;-69
2021/09/05 02:11:57;;;;;;;;;;;13.70;1.00;;;;;;5051098;28;19908;-69
2021/09/05 02:14:22;;;;;;;;;;;13.70;1.00;;;;;;5031860;28;20362;-68
2021/09/05 02:16:48;;;;;;;;;;;13.60;1.00;;;;;;5032117;28;19987;-68
2021/09/05 02:19:13;;;;;;;;;;;13.60;1.00;;;;;;5031746;28;20278;-69
2021/09/05 02:21:39;;;;;;;;;;;13.60;1.00;;;;;;5032089;28;19944;-69
2021/09/05 02:24:04;;;;;;;;;;;13.60;1.00;;;;;;5029991;28;19923;-68
2021/09/05 02:26:30;;;;;;;;;;;13.50;1.00;;;;;;5030924;28;19916;-69
2021/09/05 02:28:55;;;;;;;;;;;13.60;1.00;;;;;;5040813;28;20289;-69
2021/09/05 02:31:21;;;;;;;;;;;13.50;1.00;;;;;;5051690;28;19995;-69
2021/09/05 02:33:46;;;;;;;;;;;13.50;1.00;;;;;;5050415;28;20279;-69
2021/09/05 02:36:12;;;;;;;;;;;13.50;1.00;;;;;;5033232;28;19924;-69
2021/09/05 02:38:37;;;;;;;;;;;13.50;1.00;;;;;;5055079;28;20401;-68
2021/09/05 02:41:03;;;;;;;;;;;13.50;1.00;;;;;;5051208;28;19908;-69
2021/09/05 02:43:28;;;;;;;;;;;13.40;1.00;;;;;;5050839;28;19924;-68
2021/09/05 02:45:54;;;;;;;;;;;13.40;1.00;;;;;;5051398;28;19999;-68
2021/09/05 02:48:20;;;;;;;;;;;13.40;1.00;;;;;;5050519;28;20028;-68
2021/09/05 02:50:45;;;;;;;;;;;13.40;1.00;;;;;;5049475;28;19909;-68
2021/09/05 02:53:11;;;;;;;;;;;13.40;1.00;;;;;;5049882;28;19958;-68
2021/09/05 02:55:36;;;;;;;;;;;13.40;1.00;;;;;;5049980;28;19947;-69
2021/09/05 02:58:02;;;;;;;;;;;13.30;1.00;;;;;;5051058;28;19996;-69
2021/09/05 03:00:27;;;;;;;;;;;13.30;1.00;;;;;;5051070;28;20354;-69
2021/09/05 03:02:53;;;;;;;;;;;13.30;1.00;;;;;;5049801;28;19913;-69
2021/09/05 03:05:20;;;;;;;;;;;13.30;1.00;;;;;;5051210;28;19979;-69
2021/09/05 03:07:45;;;;;;;;;;;13.30;1.00;;;;;;5050798;28;19910;-68
2021/09/05 03:10:11;;;;;;;;;;;13.30;1.00;;;;;;5050309;28;20202;-69
2021/09/05 03:12:37;;;;;;;;;;;13.10;1.00;;;;;;5054741;28;19912;-69
2021/09/05 03:15:02;;;;;;;;;;;13.10;1.00;;;;;;5071212;28;20038;-68
2021/09/05 03:17:30;;;;;;;;;;;13.10;1.00;;;;;;5070982;28;19908;-69
2021/09/05 03:19:55;;;;;;;;;;;13.10;1.00;;;;;;5070537;28;19909;-68
2021/09/05 03:22:21;;;;;;;;;;;13.00;1.00;;;;;;5069834;28;19909;-68
2021/09/05 03:24:46;;;;;;;;;;;13.00;1.00;;;;;;5069155;28;19921;-69
2021/09/05 03:27:12;;;;;;;;;;;13.00;1.00;;;;;;5070859;28;19916;-69
2021/09/05 03:29:37;;;;;;;;;;;13.00;1.00;;;;;;5070257;28;19920;-69
2021/09/05 03:32:03;;;;;;;;;;;13.00;1.00;;;;;;5069901;28;19953;-68
2021/09/05 03:34:28;;;;;;;;;;;13.00;1.00;;;;;;5070177;28;20038;-68
2021/09/05 03:36:54;;;;;;;;;;;13.00;1.00;;;;;;5075085;28;20212;-68
2021/09/05 03:39:19;;;;;;;;;;;12.90;1.00;;;;;;5068484;28;20016;-68
2021/09/05 03:41:45;;;;;;;;;;;12.90;1.00;;;;;;5070335;28;19909;-68
2021/09/05 03:44:10;;;;;;;;;;;12.90;1.00;;;;;;5069971;28;20329;-69
2021/09/05 03:46:36;;;;;;;;;;;12.90;1.00;;;;;;5070474;28;19908;-69
2021/09/05 03:49:01;;;;;;;;;;;12.90;1.00;;;;;;5069230;28;20041;-69
2021/09/05 03:51:27;;;;;;;;;;;12.90;1.00;;;;;;5070034;28;19931;-69
2021/09/05 03:53:52;;;;;;;;;;;12.90;1.00;;;;;;5068262;28;20271;-68
2021/09/05 03:56:19;;;;;;;;;;;12.90;1.00;;;;;;5069657;28;19912;-69
2021/09/05 03:58:44;;;;;;;;;;;12.90;1.00;;;;;;5069534;28;20245;-68
2021/09/05 04:01:10;;;;;;;;;;;12.80;1.00;;;;;;5070093;28;19913;-68
2021/09/05 04:03:35;;;;;;;;;;;12.80;1.00;;;;;;5068450;28;20444;-68
2021/09/05 04:06:02;;;;;;;;;;;12.80;1.00;;;;;;5069679;28;19918;-68
2021/09/05 04:08:45;;;;;;;;;;;12.70;1.00;;;;;;5069090;28;20412;-68
2021/09/05 04:11:11;;;;;;;;;;;12.70;1.00;;;;;;5069384;28;20353;-68
2021/09/05 04:13:36;;;;;;;;;;;12.70;1.00;;;;;;5068837;28;19942;-68
2021/09/05 04:16:02;;;;;;;;;;;12.70;1.00;;;;;;5069822;28;19919;-68
2021/09/05 04:18:27;;;;;;;;;;;12.70;1.00;;;;;;5068922;28;19951;-68
2021/09/05 04:20:53;;;;;;;;;;;12.60;1.00;;;;;;5069683;28;19999;-68
2021/09/05 04:23:18;;;;;;;;;;;12.60;1.00;;;;;;5067615;28;19916;-68
2021/09/05 04:25:44;;;;;;;;;;;12.60;1.00;;;;;;5051135;28;19958;-68
2021/09/05 04:28:12;;;;;;;;;;;12.60;1.00;;;;;;5074083;28;19908;-69
2021/09/05 04:30:38;;;;;;;;;;;12.60;1.00;;;;;;5069969;28;19913;-69
2021/09/05 04:35:56;;;;;;;;;;;12.50;1.00;;;;;;5084049;28;19920;-69
2021/09/05 04:38:21;;;;;;;;;;;12.50;1.00;;;;;;5073304;28;19912;-68
2021/09/05 04:40:47;;;;;;;;;;;12.50;1.00;;;;;;5068900;28;19978;-67
2021/09/05 04:43:12;;;;;;;;;;;12.50;1.00;;;;;;5068076;28;20019;-68
2021/09/05 04:45:38;;;;;;;;;;;12.50;1.00;;;;;;5069307;28;19915;-69
2021/09/05 04:48:04;;;;;;;;;;;12.50;1.00;;;;;;5069018;28;20399;-69
2021/09/05 04:50:29;;;;;;;;;;;12.50;1.00;;;;;;5060982;28;19909;-69
2021/09/05 04:52:55;;;;;;;;;;;12.50;1.00;;;;;;5047676;28;19913;-70
2021/09/05 04:55:20;;;;;;;;;;;12.50;1.00;;;;;;5048357;28;19954;-70
2021/09/05 04:57:46;;;;;;;;;;;12.50;1.00;;;;;;5049317;28;20002;-69
2021/09/05 05:00:11;;;;;;;;;;;12.60;1.00;;;;;;5049527;28;19971;-71
2021/09/05 05:02:37;;;;;;;;;;;12.60;1.00;;;;;;5048682;28;19911;-71
2021/09/05 05:05:02;;;;;;;;;;;12.70;1.00;;;;;;5049347;28;20007;-69
2021/09/05 05:07:28;;;;;;;;;;;12.70;1.00;;;;;;5049220;28;20250;-68
2021/09/05 05:09:54;;;;;;;;;;;12.80;1.00;;;;;;5048216;28;20365;-69
2021/09/05 05:12:20;;;;;;;;;;;12.90;1.00;;;;;;5046091;28;20027;-70
2021/09/05 05:14:46;;;;;;;;;;;12.90;1.00;;;;;;5029112;28;19921;-70
2021/09/05 05:17:11;;;;;;;;;;;12.90;1.00;;;;;;5029483;28;19913;-70
2021/09/05 05:19:37;;;;;;;;;;;13.00;1.00;;;;;;5028365;28;19920;-69
2021/09/05 05:22:03;;;;;;;;;;;13.10;1.00;;;;;;5028385;28;19909;-67
2021/09/05 05:24:28;;;;;;;;;;;13.20;1.00;;;;;;5027994;28;20282;-68
2021/09/05 05:26:54;;;;;;;;;;;13.30;1.00;;;;;;5029679;28;19910;-70
2021/09/05 05:29:19;;;;;;;;;;;13.40;1.00;;;;;;5040978;28;19909;-69
2021/09/05 05:31:45;;;;;;;;;;;13.60;1.00;;;;;;5048785;28;20662;-70
2021/09/05 05:34:10;;;;;;;;;;;14.20;1.00;;;;;;5048434;28;19909;-69
2021/09/05 05:36:36;;;;;;;;;;;15.20;1.00;;;;;;5051980;28;19916;-71
2021/09/05 05:39:02;;;;;;;;;;;16.30;1.00;;;;;;5051109;28;19990;-70
2021/09/05 05:41:27;;;;;;;;;;;17.40;1.00;;;;;;5049143;28;20285;-69
2021/09/05 05:43:53;;;;;;;;;;;18.50;1.00;;;;;;5048825;28;19963;-69
2021/09/05 05:46:18;;;;;;;;;;;19.50;1.00;;;;;;5051623;28;19917;-70
2021/09/05 05:48:44;;;;;;;;;;;20.30;1.00;;;;;;5050836;28;19909;-70
2021/09/05 05:51:09;;;;;;;;;;;20.70;99.90;;;;;;5028615;28;20323;-69
2021/09/05 05:53:35;;;;;;;;;;;21.30;99.90;;;;;;5046440;28;20015;-70
2021/09/05 05:56:00;;;;;;;;;;;22.10;99.90;;;;;;5050273;28;19978;-71
2021/09/05 05:58:28;;;;;;;;;;;22.80;99.90;;;;;;5050411;28;19908;-70
2021/09/05 06:00:53;;;;;;;;;;;23.30;99.90;;;;;;5042680;28;19917;-70
2021/09/05 06:03:19;;;;;;;;;;;23.70;99.90;;;;;;5041196;28;19927;-71
2021/09/05 06:05:44;;;;;;;;;;;24.30;99.90;;;;;;5042049;28;19909;-71
2021/09/05 06:08:09;;;;;;;;;;;24.80;99.90;;;;;;5041651;28;19909;-69
2021/09/05 06:10:35;;;;;;;;;;;25.50;99.90;;;;;;5042590;28;19916;-71
2021/09/05 06:13:00;;;;;;;;;;;26.20;99.90;;;;;;5048346;28;19924;-70
2021/09/05 06:15:26;;;;;;;;;;;26.90;99.90;;;;;;5061867;28;19912;-68
2021/09/05 06:17:52;;;;;;;;;;;27.20;99.90;;;;;;5062379;28;19916;-70
2021/09/05 06:20:17;;;;;;;;;;;27.50;99.90;;;;;;5061018;28;19940;-69
2021/09/05 06:22:43;;;;;;;;;;;28.30;99.90;;;;;;5026221;28;19909;-70
2021/09/05 06:25:09;;;;;;;;;;;29.20;99.90;;;;;;5063499;28;20035;-68
2021/09/05 06:27:34;;;;;;;;;;;29.40;99.90;;;;;;5060222;28;19917;-69
2021/09/05 06:30:02;;;;;;;;;;;29.60;99.90;;;;;;5062747;28;19913;-68
2021/09/05 06:32:28;;;;;;;;;;;30.00;99.90;;;;;;5060787;28;19969;-68
2021/09/05 06:34:54;;;;;;;;;;;30.50;99.90;;;;;;5062164;28;19938;-67
2021/09/05 06:37:19;;;;;;;;;;;31.30;99.90;;;;;;5066512;28;20022;-68
2021/09/05 06:39:45;;;;;;;;;;;31.60;99.90;;;;;;5060544;28;19975;-67
2021/09/05 06:42:10;;;;;;;;;;;31.80;99.90;;;;;;5060566;28;19969;-67
2021/09/05 06:44:36;;;;;;;;;;;32.40;99.90;;;;;;5062761;28;20499;-71
2021/09/05 06:47:02;;;;;;;;;;;32.80;99.90;;;;;;5061491;28;19995;-71
2021/09/05 06:49:27;;;;;;;;;;;33.30;99.90;;;;;;5060576;28;20441;-68
2021/09/05 06:51:53;;;;;;;;;;;33.90;99.90;;;;;;5059173;28;19912;-67
2021/09/05 06:54:18;;;;;;;;;;;33.80;99.90;;;;;;5060632;28;19916;-71
2021/09/05 06:56:44;;;;;;;;;;;33.60;99.90;;;;;;5060895;28;19935;-67
2021/09/05 06:59:09;;;;;;;;;;;34.20;99.90;;;;;;5060683;28;20034;-67
2021/09/05 07:01:35;;;;;;;;;;;34.30;99.90;;;;;;5061873;28;19912;-67
2021/09/05 07:04:00;;;;;;;;;;;34.80;99.90;;;;;;5058758;28;19912;-68
2021/09/05 07:06:26;;;;;;;;;;;35.00;99.90;;;;;;5060302;28;19916;-68
2021/09/05 07:08:51;;;;;;;;;;;35.30;99.90;;;;;;5062364;28;20239;-68
2021/09/05 07:11:17;;;;;;;;;;;35.80;99.30;;;;;;5071644;28;19912;-68
2021/09/05 07:13:42;;;;;;;;;;;36.40;96.40;;;;;;5069510;28;19931;-67
2021/09/05 07:16:08;;;;;;;;;;;37.10;99.90;;;;;;5070984;28;19930;-67
2021/09/05 07:18:34;;;;;;;;;;;36.80;90.00;;;;;;5070601;28;19908;-67
2021/09/05 07:20:59;;;;;;;;;;;37.90;86.60;;;;;;5070668;28;20357;-67
2021/09/05 07:23:28;;;;;;;;;;;39.00;80.00;;;;;;5068816;28;19959;-68
2021/09/05 07:25:54;;;;;;;;;;;38.70;72.40;;;;;;5070178;28;19912;-66
2021/09/05 07:28:19;;;;;;;;;;;39.90;65.90;;;;;;5070031;28;19995;-67
2021/09/05 07:30:45;;;;;;;;;;;39.70;58.50;;;;;;5070665;28;19999;-69
2021/09/05 07:33:10;;;;;;;;;;;40.90;54.70;;;;;;5069073;28;19908;-68
2021/09/05 07:35:36;;;;;;;;;;;41.80;49.60;;;;;;5070516;28;19948;-67
2021/09/05 07:38:01;;;;;;;;;;;42.50;44.30;;;;;;5074418;28;19913;-68
2021/09/05 07:40:27;;;;;;;;;;;43.70;39.20;;;;;;5069553;28;19912;-68
2021/09/05 07:42:52;;;;;;;;;;;43.40;32.20;;;;;;5069558;28;19913;-68
2021/09/05 07:45:18;;;;;;;;;;;42.50;26.40;;;;;;5070228;28;19920;-68
2021/09/05 07:47:43;;;;;;;;;;;42.50;23.40;;;;;;5070004;28;20233;-68
2021/09/05 07:50:09;;;;;;;;;;;44.20;20.50;;;;;;5069626;28;19908;-68
2021/09/05 07:52:35;;;;;;;;;;;44.80;17.40;;;;;;5069126;28;20006;-67
2021/09/05 07:55:00;;;;;;;;;;;46.00;14.30;;;;;;5068018;28;20062;-69
2021/09/05 07:57:26;;;;;;;;;;;46.70;10.70;;;;;;5070147;28;20019;-68
2021/09/05 07:59:51;;;;;;;;;;;47.00;16.60;;;;;;5067973;28;19913;-67
2021/09/05 08:02:17;;;;;;;;;;;47.00;2.90;;;;;;5068986;28;19930;-66
2021/09/05 08:04:42;;;;;;;;;;;47.00;1.00;;;;;;5051520;28;19908;-69
2021/09/05 08:07:08;;;;;;;;;;;47.80;1.00;;;;;;5070099;28;19983;-68
2021/09/05 08:09:33;;;;;;;;;;;47.80;1.00;;;;;;5068462;28;20007;-69
2021/09/05 08:11:59;;;;;;;;;;;48.60;1.00;;;;;;5069267;28;20028;-67
2021/09/05 08:14:24;;;;;;;;;;;49.20;1.00;;;;;;5069315;28;20376;-69
2021/09/05 08:16:50;;;;;;;;;;;48.70;1.00;;;;;;5069932;28;20272;-69
2021/09/05 08:19:16;;;;;;;;;;;48.80;1.00;;;;;;5069314;28;20049;-67
2021/09/05 08:21:41;;;;;;;;;;;48.40;1.00;;;;;;5051726;28;20011;-68
2021/09/05 08:24:07;;;;;;;;;;;48.50;1.00;;;;;;5042596;28;20054;-69
2021/09/05 08:26:32;;;;;;;;;;;46.00;1.00;;;;;;5057450;28;20425;-68
2021/09/05 08:28:58;;;;;;;;;;;46.40;1.00;;;;;;5066217;28;19916;-68
2021/09/05 08:31:23;;;;;;;;;;;47.20;1.00;;;;;;5069672;28;20353;-68
2021/09/05 08:33:49;;;;;;;;;;;47.50;1.00;;;;;;5061596;28;19920;-69
2021/09/05 08:36:14;;;;;;;;;;;48.10;1.00;;;;;;5061405;28;19912;-69
2021/09/05 08:38:40;;;;;;;;;;;48.80;1.00;;;;;;5069497;28;19912;-69
2021/09/05 08:41:05;;;;;;;;;;;48.30;1.00;;;;;;5065980;28;20275;-69
2021/09/05 08:43:31;;;;;;;;;;;49.00;1.00;;;;;;5065365;28;19912;-69
2021/09/05 08:45:57;;;;;;;;;;;49.40;1.00;;;;;;5066716;28;19958;-69
2021/09/05 08:48:22;;;;;;;;;;;49.80;1.00;;;;;;5065171;28;19909;-67
2021/09/05 08:50:49;;;;;;;;;;;50.20;1.00;;;;;;5055017;28;20027;-69
2021/09/05 08:53:18;;;;;;;;;;;51.30;1.00;;;;;;5045345;28;19916;-69
2021/09/05 08:55:44;;;;;;;;;;;50.80;1.00;;;;;;5045748;28;19923;-70
2021/09/05 08:58:09;;;;;;;;;;;50.50;1.00;;;;;;5051368;28;20663;-69
2021/09/05 09:00:35;;;;;;;;;;;50.10;1.00;;;;;;5064313;28;20284;-68
2021/09/05 09:03:02;;;;;;;;;;;49.90;1.00;;;;;;5044820;28;19940;-70
2021/09/05 09:05:37;;;;;;;;;;;49.70;1.00;;;;;;5046063;28;20449;-70
2021/09/05 09:08:04;;;;;;;;;;;50.40;1.00;;;;;;5027613;28;19956;-69
2021/09/05 09:10:30;;;;;;;;;;;51.30;1.00;;;;;;5045702;28;19916;-70
2021/09/05 09:12:55;;;;;;;;;;;51.90;1.00;;;;;;5036860;28;19921;-68
2021/09/05 09:15:24;;;;;;;;;;;51.60;1.00;;;;;;5026049;28;19924;-69
2021/09/05 09:17:57;;;;;;;;;;;50.00;1.00;;;;;;5025298;28;19913;-70
2021/09/05 09:20:48;;;;;;;;;;;49.50;1.00;;;;;;5026296;28;20630;-69
2021/09/05 09:23:15;;;;;;;;;;;48.60;1.00;;;;;;5023745;28;19956;-69
2021/09/05 09:25:55;;;;;;;;;;;47.60;1.00;;;;;;5044885;28;19954;-67
2021/09/05 09:28:22;;;;;;;;;;;47.50;1.00;;;;;;5045494;28;19917;-70
2021/09/05 09:30:47;;;;;;;;;;;48.20;1.00;;;;;;5046064;28;19909;-69
2021/09/05 09:33:18;;;;;;;;;;;48.00;1.00;;;;;;5044417;28;19921;-70
2021/09/05 09:36:12;;;;;;;;;;;48.10;1.00;;;;;;5045645;28;19917;-66
2021/09/05 09:38:37;;;;;;;;;;;47.90;1.00;;;;;;5049822;28;19913;-68
2021/09/05 09:41:04;;;;;;;;;;;48.50;1.00;;;;;;5049303;28;19950;-68
2021/09/05 09:43:29;;;;;;;;;;;47.20;1.00;;;;;;5048265;28;19916;-68
2021/09/05 09:46:10;;;;;;;;;;;46.40;1.00;;;;;;5049818;28;19909;-68
2021/09/05 09:48:40;;;;;;;;;;;45.90;1.00;;;;;;5048641;28;19917;-68
2021/09/05 09:51:06;;;;;;;;;;;45.80;1.00;;;;;;5027497;28;19910;-68
2021/09/05 09:53:32;;;;;;;;;;;45.10;1.00;;;;;;5045127;28;20404;-65
2021/09/05 09:55:58;;;;;;;;;;;44.50;1.00;;;;;;5048996;28;19909;-67
2021/09/05 09:58:23;;;;;;;;;;;44.70;1.00;;;;;;5049361;28;19982;-68
2021/09/05 10:00:50;;;;;;;;;;;44.20;1.00;;;;;;5048838;28;19928;-67
2021/09/05 10:03:16;;;;;;;;;;;43.90;1.00;;;;;;5046915;28;19916;-65
2021/09/05 10:05:42;;;;;;;;;;;43.90;1.00;;;;;;5048648;28;19966;-67
2021/09/05 10:08:08;;;;;;;;;;;43.80;1.00;;;;;;5048066;28;19931;-66
2021/09/05 10:10:34;;;;;;;;;;;43.00;1.00;;;;;;5047860;28;19970;-66
2021/09/05 10:13:00;;;;;;;;;;;42.40;1.00;;;;;;5047539;28;19920;-65
2021/09/05 10:15:26;;;;;;;;;;;42.70;1.00;;;;;;5048947;28;20488;-72
2021/09/05 10:17:52;;;;;;;;;;;42.60;1.00;;;;;;5047657;28;19928;-69
2021/09/05 10:20:17;;;;;;;;;;;41.90;1.00;;;;;;5048683;28;20440;-70
2021/09/05 10:22:43;;;;;;;;;;;41.10;1.00;;;;;;5047200;28;20203;-68
2021/09/05 10:25:09;;;;;;;;;;;40.90;1.00;;;;;;5048010;28;20285;-66
2021/09/05 10:27:35;;;;;;;;;;;40.80;1.00;;;;;;5049026;28;19994;-67
2021/09/05 10:30:11;;;;;;;;;;;40.50;1.00;;;;;;5051949;28;19985;-69
2021/09/05 10:32:43;;;;;;;;;;;39.90;1.00;;;;;;5050503;28;19909;-68
2021/09/05 10:35:24;;;;;;;;;;;40.40;1.00;;;;;;5033508;28;19913;-68
2021/09/05 10:37:50;;;;;;;;;;;39.40;1.00;;;;;;5055799;28;20639;-70
2021/09/05 10:40:15;;;;;;;;;;;38.20;1.00;;;;;;5050473;28;19951;-70
2021/09/05 10:42:58;;;;;;;;;;;37.10;1.00;;;;;;5050833;28;19921;-70
2021/09/05 10:45:24;;;;;;;;;;;36.80;1.00;;;;;;5051422;28;19909;-68
2021/09/05 10:47:49;;;;;;;;;;;37.00;1.00;;;;;;5050672;28;20340;-69
2021/09/05 10:50:44;;;;;;;;;;;37.70;1.00;;;;;;5054043;28;19919;-69
2021/09/05 10:53:14;;;;;;;;;;;38.80;1.00;;;;;;5038593;28;19967;-69
2021/09/05 10:55:58;;;;;;;;;;;39.30;1.00;;;;;;5053430;28;19919;-71
2021/09/05 10:58:33;;;;;;;;;;;39.10;1.00;;;;;;5052967;28;19939;-69
2021/09/05 11:01:18;;;;;;;;;;;38.90;1.00;;;;;;5051041;28;19962;-68
2021/09/05 11:04:03;;;;;;;;;;;37.70;1.00;;;;;;5049756;28;19913;-69
2021/09/05 11:06:32;;;;;;;;;;;37.10;1.00;;;;;;5051430;28;20361;-69
2021/09/05 11:09:17;;;;;;;;;;;35.20;1.00;;;;;;5049622;28;19909;-70
2021/09/05 11:11:54;;;;;;;;;;;33.80;1.00;;;;;;5050504;28;19916;-69
2021/09/05 11:17:11;;;;;;;;;;;32.70;1.00;;;;;;5050431;28;19919;-69
2021/09/05 11:19:43;;;;;;;;;;;32.20;1.00;;;;;;5050239;28;19917;-69
2021/09/05 11:22:11;;;;;;;;;;;32.30;1.00;;;;;;5050232;28;19908;-68
2021/09/05 11:24:37;;;;;;;;;;;32.00;1.00;;;;;;5049565;28;19931;-68
2021/09/05 11:27:03;;;;;;;;;;;32.20;1.00;;;;;;5051472;28;20008;-68
2021/09/05 11:29:29;;;;;;;;;;;32.50;1.00;;;;;;5050508;28;19932;-68
2021/09/05 11:32:01;;;;;;;;;;;33.10;1.00;;;;;;5049818;28;20257;-69
2021/09/05 11:34:27;;;;;;;;;;;32.60;1.00;;;;;;5049701;28;20460;-68
2021/09/05 11:36:53;;;;;;;;;;;31.70;1.00;;;;;;5054974;28;19916;-69
2021/09/05 11:39:18;;;;;;;;;;;32.10;1.00;;;;;;5049013;28;20382;-70
2021/09/05 11:41:44;;;;;;;;;;;32.10;1.00;;;;;;5049943;28;20013;-68
2021/09/05 11:44:09;;;;;;;;;;;31.30;1.00;;;;;;5049618;28;20219;-70
2021/09/05 11:46:35;;;;;;;;;;;30.60;1.00;;;;;;5050668;28;20042;-69
2021/09/05 11:49:02;;;;;;;;;;;30.40;1.00;;;;;;5049840;28;19966;-70
2021/09/05 11:51:28;;;;;;;;;;;30.50;1.00;;;;;;5050348;28;20556;-69
2021/09/05 11:53:56;;;;;;;;;;;30.20;1.00;;;;;;5048170;28;19955;-69
2021/09/05 11:56:22;;;;;;;;;;;30.50;1.00;;;;;;5049687;28;19939;-70
2021/09/05 11:58:48;;;;;;;;;;;30.80;1.00;;;;;;5049267;28;19985;-68
2021/09/05 12:01:13;;;;;;;;;;;30.50;1.00;;;;;;5049613;28;19990;-68
2021/09/05 12:03:39;;;;;;;;;;;30.50;1.00;;;;;;5048167;28;19956;-70
2021/09/05 12:06:08;;;;;;;;;;;30.70;1.00;;;;;;5049716;28;20047;-70
2021/09/05 12:08:34;;;;;;;;;;;30.20;1.00;;;;;;5048623;28;19908;-68
2021/09/05 12:11:01;;;;;;;;;;;30.30;1.00;;;;;;5049192;28;19909;-68
2021/09/05 12:13:26;;;;;;;;;;;30.20;1.00;;;;;;5048581;28;19917;-69
2021/09/05 12:15:52;;;;;;;;;;;30.60;1.00;;;;;;5046478;28;19947;-69
2021/09/05 12:18:21;;;;;;;;;;;30.90;1.00;;;;;;5048874;28;19913;-68
2021/09/05 12:20:51;;;;;;;;;;;30.50;1.00;;;;;;5043108;28;19917;-70
2021/09/05 12:23:27;;;;;;;;;;;29.90;1.00;;;;;;5048201;28;20336;-70
2021/09/05 12:25:54;;;;;;;;;;;29.60;1.00;;;;;;5032559;28;19909;-69
2021/09/05 12:28:22;;;;;;;;;;;29.60;1.00;;;;;;5049307;28;19912;-70
2021/09/05 12:30:53;;;;;;;;;;;29.50;1.00;;;;;;5049739;28;19909;-69
2021/09/05 12:33:30;;;;;;;;;;;28.90;1.00;;;;;;5048285;28;19920;-69
2021/09/05 12:36:05;;;;;;;;;;;29.00;1.00;;;;;;5047021;28;19992;-70
2021/09/05 12:38:32;;;;;;;;;;;28.80;1.00;;;;;;5049028;28;20247;-71
2021/09/05 12:41:09;;;;;;;;;;;28.60;1.00;;;;;;5048999;28;20584;-72
2021/09/05 12:43:54;;;;;;;;;;;28.50;1.00;;;;;;5048410;28;19908;-69
2021/09/05 12:46:20;;;;;;;;;;;28.50;1.00;;;;;;5049320;28;19999;-72
2021/09/05 12:48:47;;;;;;;;;;;28.40;1.00;;;;;;5049047;28;20284;-69
2021/09/05 12:51:18;;;;;;;;;;;28.50;1.00;;;;;;5027769;28;19909;-68
2021/09/05 12:54:00;;;;;;;;;;;28.50;1.00;;;;;;5027602;28;19913;-68
2021/09/05 12:56:27;;;;;;;;;;;28.60;1.00;;;;;;5028725;28;20404;-70
2021/09/05 12:58:52;;;;;;;;;;;28.80;1.00;;;;;;5027746;28;19913;-70
2021/09/05 13:01:29;;;;;;;;;;;28.90;1.00;;;;;;5028954;28;19914;-69
2021/09/05 13:03:55;;;;;;;;;;;28.40;1.00;;;;;;5028095;28;19909;-69
2021/09/05 13:06:21;;;;;;;;;;;27.90;1.00;;;;;;5028732;28;19920;-68
2021/09/05 13:08:48;;;;;;;;;;;27.50;1.00;;;;;;5027981;28;20000;-69
2021/09/05 13:11:19;;;;;;;;;;;27.20;1.00;;;;;;5029114;28;19917;-70
2021/09/05 13:13:45;;;;;;;;;;;27.00;1.50;;;;;;5093819;22;19924;-71
2021/09/05 13:16:11;;;;;;;;;;;26.70;2.30;;;;;;5113952;28;19923;-71
2021/09/05 13:18:36;;;;;;;;;;;26.40;2.90;;;;;;5113470;28;19907;-70
2021/09/05 13:21:02;;;;;;;;;;;26.20;4.40;;;;;;5113920;28;19923;-71
2021/09/05 13:23:27;;;;;;;;;;;26.10;15.00;;;;;;5111995;28;19912;-71
2021/09/05 13:25:53;;;;;;;;;;;26.10;5.90;;;;;;5113106;28;19912;-71
2021/09/05 13:28:18;;;;;;;;;;;25.90;6.40;;;;;;5113260;28;19912;-70
2021/09/05 13:30:45;;;;;;;;;;;25.80;6.90;;;;;;5113245;28;19919;-71
2021/09/05 13:33:11;;;;;;;;;;;25.60;7.50;;;;;;5112375;28;19912;-71
2021/09/05 13:35:36;;;;;;;;;;;25.40;7.30;;;;;;5113493;28;19972;-70
2021/09/05 13:38:02;;;;;;;;;;;25.20;8.30;;;;;;5117340;27;20264;-70
2021/09/05 13:40:27;;;;;;;;;;;25.10;8.70;;;;;;5112984;28;20003;-70
2021/09/05 13:42:53;;;;;;;;;;;25.10;9.70;;;;;;5112484;28;19911;-71
2021/09/05 13:45:18;;;;;;;;;;;25.10;10.70;;;;;;5113100;28;20014;-71
2021/09/05 13:47:44;;;;;;;;;;;25.10;11.80;;;;;;5112901;28;19958;-71
2021/09/05 13:50:09;;;;;;;;;;;25.20;13.40;;;;;;5112956;28;20470;-72
2021/09/05 13:52:36;;;;;;;;;;;25.40;15.20;;;;;;5112029;28;19908;-72
2021/09/05 13:55:02;;;;;;;;;;;25.40;17.10;;;;;;5111844;28;19919;-71
2021/09/05 13:57:28;;;;;;;;;;;25.50;17.60;;;;;;5112972;28;20335;-72
2021/09/05 13:59:55;;;;;;;;;;;25.50;17.30;;;;;;5112603;28;19931;-71
2021/09/05 14:02:22;;;;;;;;;;;25.50;17.80;;;;;;5112413;28;20387;-72
2021/09/05 14:04:47;;;;;;;;;;;25.40;17.10;;;;;;5112008;28;20434;-72
2021/09/05 14:07:13;;;;;;;;;;;25.40;17.60;;;;;;5112855;28;20026;-69
2021/09/05 14:09:38;;;;;;;;;;;25.30;18.20;;;;;;5111427;28;19914;-69
2021/09/05 14:12:04;;;;;;;;;;;25.00;18.80;;;;;;5112287;28;19912;-69
2021/09/05 14:14:29;;;;;;;;;;;25.00;20.20;;;;;;5111778;28;19920;-70
2021/09/05 14:16:55;;;;;;;;;;;25.00;21.20;;;;;;5112697;28;20357;-70
2021/09/05 14:19:21;;;;;;;;;;;24.90;20.60;;;;;;5112180;28;20007;-69
2021/09/05 14:21:47;;;;;;;;;;;24.90;21.30;;;;;;5112100;28;19908;-72
2021/09/05 14:24:13;;;;;;;;;;;24.90;22.80;;;;;;5110923;28;19911;-69
2021/09/05 14:26:39;;;;;;;;;;;24.90;23.30;;;;;;5113013;28;19908;-70
2021/09/05 14:29:10;;;;;;;;;;;24.90;24.00;;;;;;5108822;28;19921;-70